createdAt,value
2022-12-11T00:00:21.833Z,12.60
2022-12-11T00:02:48.746Z,13.20
2022-12-11T00:05:15.671Z,12.70
2022-12-11T00:07:42.525Z,11.70
2022-12-11T00:10:09.313Z,12.00
2022-12-11T00:12:36.004Z,11.20
2022-12-11T00:15:03.099Z,12.20
2022-12-11T00:17:29.776Z,11.90
2022-12-11T00:19:56.450Z,12.10
2022-12-11T00:22:23.195Z,12.20
2022-12-11T00:24:50.966Z,11.80
2022-12-11T00:27:17.629Z,12.40
2022-12-11T00:29:44.512Z,12.20
2022-12-11T00:32:11.340Z,12.40
2022-12-11T00:34:38.309Z,12.40
2022-12-11T00:37:05.116Z,11.80
2022-12-11T00:39:31.915Z,11.60
2022-12-11T00:41:58.640Z,11.70
2022-12-11T00:44:25.475Z,10.70
2022-12-11T00:46:52.282Z,11.40
2022-12-11T00:49:19.092Z,10.70
2022-12-11T00:51:45.857Z,10.60
2022-12-11T00:54:12.518Z,9.80
2022-12-11T00:56:39.305Z,10.80
2022-12-11T00:59:06.354Z,10.20
2022-12-11T01:01:33.198Z,10.90
2022-12-11T01:04:00.238Z,10.30
2022-12-11T01:06:28.286Z,9.30
2022-12-11T01:09:14.655Z,9.30
2022-12-11T01:11:42.808Z,10.50
2022-12-11T01:14:11.080Z,11.60
2022-12-11T01:16:37.843Z,9.80
2022-12-11T01:19:04.616Z,10.20
2022-12-11T01:21:31.320Z,8.90
2022-12-11T01:23:58.248Z,9.30
2022-12-11T01:26:24.987Z,8.50
2022-12-11T01:28:52.020Z,7.30
2022-12-11T01:31:20.241Z,7.60
2022-12-11T01:33:47.228Z,6.90
2022-12-11T01:36:18.320Z,7.90
2022-12-11T01:38:47.259Z,8.20
2022-12-11T01:41:15.830Z,9.40
2022-12-11T01:44:02.289Z,7.90
2022-12-11T01:46:31.848Z,8.60
2022-12-11T01:49:00.772Z,8.30
2022-12-11T01:51:31.258Z,8.30
2022-12-11T01:54:07.426Z,8.40
2022-12-11T01:56:36.544Z,7.90
2022-12-11T01:59:06.612Z,8.50
2022-12-11T02:01:42.605Z,7.10
2022-12-11T02:04:10.889Z,7.80
2022-12-11T02:06:41.999Z,7.00
2022-12-11T02:09:19.966Z,7.10
2022-12-11T02:11:52.717Z,8.00
2022-12-11T02:14:34.381Z,8.00
2022-12-11T02:17:19.400Z,6.80
2022-12-11T02:20:01.267Z,8.30
2022-12-11T02:23:08.495Z,8.30
2022-12-11T02:26:05.382Z,7.70
2022-12-11T02:28:49.135Z,7.80
2022-12-11T02:31:27.368Z,7.50
2022-12-11T02:34:18.441Z,7.60
2022-12-11T02:36:52.696Z,6.60
2022-12-11T02:39:21.989Z,7.10
2022-12-11T02:41:51.052Z,6.80
2022-12-11T02:44:26.696Z,7.50
2022-12-11T02:46:54.493Z,7.90
2022-12-11T02:49:23.515Z,7.60
2022-12-11T02:51:52.344Z,7.90
2022-12-11T02:54:30.849Z,8.40
2022-12-11T02:57:14.059Z,8.10
2022-12-11T02:59:45.628Z,9.30
2022-12-11T03:02:14.852Z,8.90
2022-12-11T03:04:43.750Z,9.20
2022-12-11T03:07:18.284Z,8.80
2022-12-11T03:09:47.886Z,8.60
2022-12-11T03:12:20.459Z,8.30
2022-12-11T03:14:48.313Z,5.90
2022-12-11T03:17:21.174Z,6.00
2022-12-11T03:19:55.398Z,6.20
2022-12-11T03:22:35.688Z,7.20
2022-12-11T03:25:11.597Z,6.70
2022-12-11T03:27:52.396Z,6.90
2022-12-11T03:30:24.272Z,6.60
2022-12-11T03:33:09.383Z,7.20
2022-12-11T03:35:51.835Z,7.70
2022-12-11T03:38:29.737Z,7.70
2022-12-11T03:41:01.599Z,8.10
2022-12-11T03:43:31.425Z,7.60
2022-12-11T03:46:00.576Z,7.00
2022-12-11T03:48:32.537Z,7.60
2022-12-11T03:51:03.920Z,6.40
2022-12-11T03:56:00.101Z,6.40
2022-12-11T03:58:26.900Z,6.70
2022-12-11T04:00:53.770Z,6.30
2022-12-11T04:03:20.592Z,6.40
2022-12-11T04:05:50.778Z,6.30
2022-12-11T04:08:22.624Z,6.20
2022-12-11T04:11:14.224Z,6.60
2022-12-11T04:13:41.555Z,5.60
2022-12-11T04:16:09.181Z,5.50
2022-12-11T04:18:54.322Z,5.80
2022-12-11T04:21:40.101Z,6.10
2022-12-11T04:24:17.207Z,6.70
2022-12-11T04:26:46.772Z,5.90
2022-12-11T04:29:14.713Z,6.00
2022-12-11T04:31:41.572Z,6.30
2022-12-11T04:34:08.700Z,6.70
2022-12-11T04:36:35.666Z,7.10
2022-12-11T04:39:04.895Z,6.70
2022-12-11T04:41:31.639Z,6.00
2022-12-11T04:43:58.523Z,5.20
2022-12-11T04:46:25.521Z,6.00
2022-12-11T04:48:57.102Z,6.90
2022-12-11T04:51:24.810Z,6.60
2022-12-11T04:53:51.666Z,5.60
2022-12-11T04:56:19.058Z,6.10
2022-12-11T04:58:46.578Z,6.50
2022-12-11T05:01:19.880Z,7.20
2022-12-11T05:03:47.355Z,6.20
2022-12-11T05:06:14.826Z,7.10
2022-12-11T05:08:42.635Z,6.30
2022-12-11T05:11:13.086Z,7.00
2022-12-11T05:13:40.475Z,5.80
2022-12-11T05:16:10.582Z,6.80
2022-12-11T05:18:37.631Z,6.50
2022-12-11T05:21:10.789Z,6.80
2022-12-11T05:23:38.385Z,5.80
2022-12-11T05:26:10.412Z,5.40
2022-12-11T05:28:38.675Z,5.70
2022-12-11T05:31:12.134Z,6.20
2022-12-11T05:33:39.064Z,6.50
2022-12-11T05:36:07.364Z,5.90
2022-12-11T05:38:34.449Z,6.10
2022-12-11T05:41:05.223Z,6.60
2022-12-11T05:43:35.776Z,6.30
2022-12-11T05:46:14.039Z,6.40
2022-12-11T05:48:41.731Z,6.70
2022-12-11T05:51:09.946Z,7.60
2022-12-11T05:53:38.724Z,7.20
2022-12-11T05:56:13.924Z,6.70
2022-12-11T05:58:42.164Z,6.70
2022-12-11T06:01:16.580Z,7.50
2022-12-11T06:03:44.195Z,8.00
2022-12-11T06:06:12.000Z,8.00
2022-12-11T06:08:39.247Z,8.10
2022-12-11T06:11:06.159Z,8.10
2022-12-11T06:13:33.677Z,8.50
2022-12-11T06:16:06.987Z,8.10
2022-12-11T06:18:39.142Z,7.80
2022-12-11T06:21:14.972Z,8.30
2022-12-11T06:23:43.315Z,8.20
2022-12-11T06:26:10.863Z,8.40
2022-12-11T06:28:38.184Z,8.50
2022-12-11T06:31:05.559Z,8.90
2022-12-11T06:33:32.290Z,8.30
2022-12-11T06:36:08.187Z,9.60
2022-12-11T06:38:36.382Z,8.80
2022-12-11T06:41:05.628Z,9.10
2022-12-11T06:43:34.549Z,10.80
2022-12-11T06:46:11.934Z,10.50
2022-12-11T06:48:42.958Z,10.40
2022-12-11T06:51:16.523Z,11.20
2022-12-11T06:53:43.819Z,10.40
2022-12-11T06:56:14.731Z,14.50
2022-12-11T06:58:43.394Z,13.60
2022-12-11T07:01:28.364Z,14.50
2022-12-11T07:03:57.231Z,15.40
2022-12-11T07:06:26.439Z,15.20
2022-12-11T07:08:53.869Z,15.00
2022-12-11T07:11:21.517Z,17.50
2022-12-11T07:13:48.371Z,18.20
2022-12-11T07:16:16.897Z,16.20
2022-12-11T07:18:48.912Z,15.80
2022-12-11T07:21:16.379Z,15.80
2022-12-11T07:23:43.293Z,16.70
2022-12-11T07:26:14.262Z,16.40
2022-12-11T07:28:41.966Z,16.30
2022-12-11T07:31:12.677Z,15.60
2022-12-11T07:33:40.455Z,17.90
2022-12-11T07:36:10.678Z,16.40
2022-12-11T07:38:37.745Z,17.10
2022-12-11T07:41:07.437Z,16.40
2022-12-11T07:43:35.394Z,15.30
2022-12-11T07:46:11.366Z,16.50
2022-12-11T07:48:40.621Z,17.80
2022-12-11T07:51:26.949Z,17.00
2022-12-11T07:53:57.712Z,17.00
2022-12-11T07:56:26.237Z,17.50
2022-12-11T07:58:53.762Z,16.50
2022-12-11T08:01:25.309Z,17.60
2022-12-11T08:03:53.186Z,17.00
2022-12-11T08:06:28.006Z,17.30
2022-12-11T08:08:56.619Z,16.90
2022-12-11T08:11:23.982Z,17.90
2022-12-11T08:13:50.863Z,18.00
2022-12-11T08:16:18.826Z,17.40
2022-12-11T08:18:47.043Z,15.70
2022-12-11T08:21:18.074Z,17.00
2022-12-11T08:23:45.755Z,15.50
2022-12-11T08:26:19.402Z,17.20
2022-12-11T08:28:46.471Z,17.00
2022-12-11T08:31:15.190Z,15.80
2022-12-11T08:33:42.231Z,16.50
2022-12-11T08:36:13.081Z,15.90
2022-12-11T08:38:42.496Z,14.70
2022-12-11T08:41:15.803Z,14.80
2022-12-11T08:43:43.321Z,15.90
2022-12-11T08:46:11.665Z,15.10
2022-12-11T08:48:40.871Z,14.20
2022-12-11T08:51:15.045Z,14.80
2022-12-11T08:53:42.542Z,15.60
2022-12-11T08:56:14.807Z,15.60
2022-12-11T08:58:42.845Z,13.10
2022-12-11T09:01:14.766Z,15.90
2022-12-11T09:03:42.093Z,15.10
2022-12-11T09:06:13.783Z,15.80
2022-12-11T09:08:43.940Z,14.90
2022-12-11T09:11:21.226Z,14.70
2022-12-11T09:13:48.392Z,15.90
2022-12-11T09:16:19.526Z,15.20
2022-12-11T09:18:49.957Z,13.10
2022-12-11T09:21:20.494Z,14.50
2022-12-11T09:23:47.837Z,14.00
2022-12-11T09:26:17.395Z,13.50
2022-12-11T09:28:46.887Z,13.70
2022-12-11T09:31:27.299Z,14.30
2022-12-11T09:33:58.649Z,13.40
2022-12-11T09:36:26.148Z,13.50
2022-12-11T09:38:54.063Z,13.70
2022-12-11T09:41:20.961Z,14.40
2022-12-11T09:44:29.861Z,14.40
2022-12-11T09:46:57.650Z,12.80
2022-12-11T09:49:32.632Z,14.50
2022-12-11T09:52:14.424Z,12.50
2022-12-11T09:54:50.537Z,13.30
2022-12-11T09:57:53.020Z,12.70
2022-12-11T10:00:29.934Z,13.20
2022-12-11T10:03:34.642Z,13.00
2022-12-11T10:06:23.617Z,13.60
2022-12-11T10:09:35.203Z,13.30
2022-12-11T10:12:11.155Z,14.40
2022-12-11T10:14:47.068Z,12.40
2022-12-11T10:17:22.899Z,13.10
2022-12-11T10:19:50.212Z,12.70
2022-12-11T10:22:31.270Z,12.90
2022-12-11T10:25:23.073Z,13.50
2022-12-11T10:30:28.410Z,14.00
2022-12-11T10:33:21.893Z,14.30
2022-12-11T10:35:55.841Z,12.10
2022-12-11T10:38:36.193Z,14.20
2022-12-11T10:41:12.067Z,14.00
2022-12-11T10:43:46.101Z,12.60
2022-12-11T10:46:28.160Z,13.50
2022-12-11T10:49:00.789Z,11.40
2022-12-11T10:51:30.461Z,12.00
2022-12-11T10:54:17.673Z,10.40
2022-12-11T10:56:47.664Z,10.80
2022-12-11T10:59:33.421Z,10.60
2022-12-11T11:02:00.395Z,10.20
2022-12-11T11:04:32.953Z,10.60
2022-12-11T11:07:14.227Z,11.30
2022-12-11T11:09:41.199Z,10.90
2022-12-11T11:12:23.955Z,10.50
2022-12-11T11:15:04.174Z,10.80
2022-12-11T11:17:35.139Z,9.70
2022-12-11T11:20:15.217Z,10.80
2022-12-11T11:22:51.047Z,10.00
2022-12-11T11:25:21.780Z,10.70
2022-12-11T11:27:53.415Z,12.20
2022-12-11T11:30:26.527Z,12.00
2022-12-11T11:33:04.294Z,12.20
2022-12-11T11:35:31.834Z,11.30
2022-12-11T11:38:20.075Z,11.40
2022-12-11T11:41:07.592Z,11.70
2022-12-11T11:43:45.759Z,11.00
2022-12-11T11:46:24.918Z,11.30
2022-12-11T11:49:18.672Z,10.90
2022-12-11T11:52:00.473Z,11.30
2022-12-11T11:54:42.611Z,11.50
2022-12-11T11:57:24.523Z,11.90
2022-12-11T12:00:09.225Z,10.70
2022-12-11T12:02:37.263Z,11.20
2022-12-11T12:05:04.698Z,11.30
2022-12-11T12:07:45.308Z,11.50
2022-12-11T12:10:46.605Z,11.90
2022-12-11T12:13:58.407Z,12.20
2022-12-11T12:16:53.787Z,10.90
2022-12-11T12:19:44.841Z,12.50
2022-12-11T12:22:31.850Z,13.90
2022-12-11T12:25:28.324Z,11.70
2022-12-11T12:28:34.227Z,11.50
2022-12-11T12:31:40.957Z,12.10
2022-12-11T12:34:34.268Z,11.40
2022-12-11T12:37:21.347Z,12.20
2022-12-11T12:40:10.445Z,11.70
2022-12-11T12:43:25.140Z,12.50
2022-12-11T12:46:30.163Z,12.40
2022-12-11T12:48:58.528Z,12.40
2022-12-11T12:51:26.598Z,11.20
2022-12-11T12:54:03.214Z,11.80
2022-12-11T12:56:32.670Z,12.50
2022-12-11T12:58:59.511Z,12.00
2022-12-11T13:01:30.913Z,11.80
2022-12-11T13:06:38.805Z,11.00
2022-12-11T13:09:28.966Z,11.50
2022-12-11T13:11:59.554Z,11.90
2022-12-11T13:14:31.797Z,12.20
2022-12-11T13:17:20.225Z,13.70
2022-12-11T13:19:49.652Z,11.90
2022-12-11T13:22:16.433Z,11.90
2022-12-11T13:25:01.000Z,11.10
2022-12-11T13:27:42.161Z,10.70
2022-12-11T13:30:14.667Z,11.10
2022-12-11T13:32:52.333Z,11.40
2022-12-11T13:35:20.565Z,11.00
2022-12-11T13:37:51.685Z,11.80
2022-12-11T13:40:24.439Z,11.90
2022-12-11T13:42:59.751Z,10.60
2022-12-11T13:45:44.610Z,11.10
2022-12-11T13:48:20.303Z,11.00
2022-12-11T13:50:50.739Z,10.30
2022-12-11T13:53:19.137Z,11.40
2022-12-11T13:55:55.970Z,10.20
2022-12-11T13:58:23.295Z,10.70
2022-12-11T14:01:10.530Z,12.30
2022-12-11T14:03:56.905Z,12.20
2022-12-11T14:06:25.680Z,11.30
2022-12-11T14:08:56.632Z,11.70
2022-12-11T14:11:50.921Z,12.20
2022-12-11T14:14:33.742Z,11.60
2022-12-11T14:17:00.890Z,11.60
2022-12-11T14:19:28.304Z,11.30
2022-12-11T14:22:07.358Z,9.80
2022-12-11T14:24:34.383Z,12.50
2022-12-11T14:27:01.227Z,12.50
2022-12-11T14:29:33.108Z,12.40
2022-12-11T14:32:06.145Z,12.20
2022-12-11T14:34:45.420Z,12.00
2022-12-11T14:37:15.484Z,12.10
2022-12-11T14:40:06.432Z,12.60
2022-12-11T14:42:47.658Z,12.30
2022-12-11T14:45:46.594Z,13.70
2022-12-11T14:48:27.696Z,11.90
2022-12-11T14:50:59.110Z,13.30
2022-12-11T14:56:00.987Z,11.80
2022-12-11T14:58:28.781Z,11.40
2022-12-11T15:01:02.958Z,12.00
2022-12-11T15:03:38.572Z,13.20
2022-12-11T15:06:29.851Z,12.00
2022-12-11T15:08:57.043Z,12.10
2022-12-11T15:11:30.392Z,14.00
2022-12-11T15:14:00.731Z,13.70
2022-12-11T15:16:33.113Z,12.90
2022-12-11T15:18:59.961Z,14.20
2022-12-11T15:21:37.204Z,13.70
2022-12-11T15:24:06.328Z,14.20
2022-12-11T15:26:43.743Z,15.30
2022-12-11T15:29:38.097Z,16.30
2022-12-11T15:32:07.843Z,16.00
2022-12-11T15:34:44.324Z,15.20
2022-12-11T15:37:28.398Z,16.50
2022-12-11T15:39:57.741Z,15.80
2022-12-11T15:42:35.428Z,18.70
2022-12-11T15:45:06.924Z,16.50
2022-12-11T15:50:16.154Z,16.70
2022-12-11T15:52:43.268Z,17.30
2022-12-11T15:55:10.960Z,16.70
2022-12-11T15:57:44.206Z,16.10
2022-12-11T16:00:18.024Z,16.10
2022-12-11T16:02:46.050Z,15.80
2022-12-11T16:05:14.140Z,16.80
2022-12-11T16:07:41.020Z,14.40
2022-12-11T16:10:14.930Z,15.40
2022-12-11T16:12:42.704Z,17.20
2022-12-11T16:15:19.937Z,16.30
2022-12-11T16:17:50.024Z,15.90
2022-12-11T16:20:16.945Z,15.80
2022-12-11T16:22:44.054Z,16.20
2022-12-11T16:25:11.213Z,15.70
2022-12-11T16:27:38.243Z,16.60
2022-12-11T16:30:05.851Z,16.70
2022-12-11T16:32:32.764Z,17.20
2022-12-11T16:35:00.453Z,16.50
2022-12-11T16:37:27.300Z,17.60
2022-12-11T16:39:54.042Z,18.30
2022-12-11T16:42:20.852Z,17.30
2022-12-11T16:44:47.902Z,18.10
2022-12-11T16:47:14.673Z,19.10
2022-12-11T16:49:44.077Z,16.80
2022-12-11T16:52:10.751Z,18.60
2022-12-11T16:54:37.534Z,16.40
2022-12-11T16:57:04.187Z,21.40
2022-12-11T16:59:36.584Z,19.80
2022-12-11T17:02:04.602Z,16.50
2022-12-11T17:04:32.032Z,16.60
2022-12-11T17:06:58.769Z,15.40
2022-12-11T17:09:25.517Z,15.10
2022-12-11T17:11:52.379Z,16.20
2022-12-11T17:14:19.640Z,16.60
2022-12-11T17:16:47.505Z,16.20
2022-12-11T17:19:15.096Z,18.50
2022-12-11T17:21:44.801Z,17.80
2022-12-11T17:24:16.360Z,16.40
2022-12-11T17:26:43.482Z,17.20
2022-12-11T17:29:11.629Z,15.90
2022-12-11T17:31:38.955Z,17.80
2022-12-11T17:34:06.517Z,17.60
2022-12-11T17:36:33.577Z,17.30
2022-12-11T17:39:00.353Z,18.10
2022-12-11T17:41:27.143Z,18.70
2022-12-11T17:43:55.445Z,18.20
2022-12-11T17:46:22.586Z,15.90
2022-12-11T17:48:49.374Z,15.90
2022-12-11T17:51:23.057Z,17.20
2022-12-11T17:53:51.042Z,17.30
2022-12-11T17:56:18.927Z,15.00
2022-12-11T17:58:45.803Z,14.90
2022-12-11T18:01:13.157Z,15.70
2022-12-11T18:03:41.044Z,15.60
2022-12-11T18:06:14.012Z,15.00
2022-12-11T18:08:41.788Z,17.00
2022-12-11T18:11:17.116Z,15.70
2022-12-11T18:13:45.158Z,15.80
2022-12-11T18:16:18.619Z,16.10
2022-12-11T18:18:46.923Z,15.40
2022-12-11T18:21:18.825Z,16.30
2022-12-11T18:23:46.254Z,14.90
2022-12-11T18:26:13.870Z,14.10
2022-12-11T18:28:41.429Z,16.50
2022-12-11T18:31:09.298Z,15.50
2022-12-11T18:33:38.913Z,16.60
2022-12-11T18:36:06.838Z,16.50
2022-12-11T18:38:34.027Z,15.80
2022-12-11T18:41:06.025Z,15.10
2022-12-11T18:43:32.855Z,16.00
2022-12-11T18:45:59.774Z,14.60
2022-12-11T18:48:26.517Z,16.00
2022-12-11T18:50:53.734Z,15.20
2022-12-11T18:53:20.481Z,16.90
2022-12-11T18:55:48.320Z,16.90
2022-12-11T18:58:18.724Z,17.00
2022-12-11T19:00:46.112Z,17.10
2022-12-11T19:03:13.527Z,17.20
2022-12-11T19:05:43.081Z,17.00
2022-12-11T19:08:13.127Z,15.60
2022-12-11T19:10:44.562Z,14.80
2022-12-11T19:15:42.600Z,15.60
2022-12-11T19:18:10.275Z,16.50
2022-12-11T19:21:04.924Z,15.90
2022-12-11T19:23:26.243Z,14.90
2022-12-11T19:25:52.937Z,14.90
2022-12-11T19:28:19.627Z,14.80
2022-12-11T19:30:48.651Z,14.60
2022-12-11T19:33:16.047Z,13.40
2022-12-11T19:35:43.872Z,14.60
2022-12-11T19:38:12.287Z,14.40
2022-12-11T19:40:43.618Z,14.70
2022-12-11T19:43:10.700Z,15.00
2022-12-11T19:45:37.642Z,14.50
2022-12-11T19:48:05.241Z,13.90
2022-12-11T19:50:35.639Z,15.20
2022-12-11T19:53:03.326Z,15.00
2022-12-11T19:55:30.207Z,14.90
2022-12-11T19:57:56.932Z,14.10
2022-12-11T20:00:24.171Z,14.30
2022-12-11T20:02:51.436Z,15.20
2022-12-11T20:05:18.390Z,14.70
2022-12-11T20:07:45.407Z,14.70
2022-12-11T20:10:12.219Z,16.30
2022-12-11T20:12:39.822Z,14.70
2022-12-11T20:15:07.795Z,14.90
2022-12-11T20:17:36.523Z,14.90
2022-12-11T20:20:04.045Z,15.30
2022-12-11T20:22:30.978Z,14.80
2022-12-11T20:24:57.630Z,14.20
2022-12-11T20:27:25.526Z,14.90
2022-12-11T20:29:52.215Z,14.20
2022-12-11T20:32:18.960Z,14.10
2022-12-11T20:34:45.643Z,14.80
2022-12-11T20:37:12.473Z,15.20
2022-12-11T20:39:40.284Z,14.70
2022-12-11T20:42:09.293Z,13.80
2022-12-11T20:44:36.013Z,15.20
2022-12-11T20:47:02.964Z,13.70
2022-12-11T20:49:29.736Z,14.90
2022-12-11T20:51:56.557Z,15.10
2022-12-11T20:54:23.417Z,14.30
2022-12-11T20:56:50.457Z,14.40
2022-12-11T20:59:18.127Z,14.30
2022-12-11T21:01:45.223Z,14.80
2022-12-11T21:04:12.027Z,15.20
2022-12-11T21:06:40.008Z,14.90
2022-12-11T21:09:18.485Z,14.90
2022-12-11T21:11:45.688Z,14.60
2022-12-11T21:14:13.726Z,16.10
2022-12-11T21:16:40.636Z,15.70
2022-12-11T21:19:11.304Z,14.30
2022-12-11T21:21:44.499Z,15.30
2022-12-11T21:24:19.062Z,12.80
2022-12-11T21:26:46.917Z,14.60
2022-12-11T21:29:13.778Z,14.00
2022-12-11T21:31:41.160Z,14.60
2022-12-11T21:34:08.242Z,13.70
2022-12-11T21:36:35.011Z,13.60
2022-12-11T21:39:02.511Z,13.80
2022-12-11T21:41:29.422Z,14.30
2022-12-11T21:45:07.238Z,13.90
2022-12-11T21:46:43.186Z,13.60
2022-12-11T21:49:10.040Z,13.00
2022-12-11T21:51:45.520Z,13.10
2022-12-11T21:54:17.685Z,12.80
2022-12-11T21:56:45.551Z,14.60
2022-12-11T21:59:12.944Z,13.80
2022-12-11T22:01:42.380Z,12.50
2022-12-11T22:04:10.842Z,13.40
2022-12-11T22:06:39.544Z,13.50
2022-12-11T22:09:06.267Z,13.40
2022-12-11T22:11:34.407Z,14.00
2022-12-11T22:14:02.166Z,13.70
2022-12-11T22:16:29.030Z,13.60
2022-12-11T22:18:55.732Z,13.70
2022-12-11T22:21:22.666Z,14.10
2022-12-11T22:23:49.653Z,13.90
2022-12-11T22:26:22.464Z,12.10
2022-12-11T22:28:50.113Z,12.50
2022-12-11T22:31:20.689Z,13.10
2022-12-11T22:33:49.909Z,13.90
2022-12-11T22:36:18.270Z,12.20
2022-12-11T22:38:46.371Z,12.00
2022-12-11T22:41:22.158Z,12.30
2022-12-11T22:43:49.907Z,12.80
2022-12-11T22:46:19.231Z,14.80
2022-12-11T22:48:46.428Z,13.40
2022-12-11T22:51:13.599Z,13.50
2022-12-11T22:53:40.314Z,13.40
2022-12-11T22:56:10.028Z,12.40
2022-12-11T22:58:37.018Z,13.20
2022-12-11T23:01:12.934Z,13.90
2022-12-11T23:03:40.577Z,14.00
2022-12-11T23:06:11.055Z,13.50
2022-12-11T23:08:39.228Z,11.50
2022-12-11T23:11:12.893Z,12.30
2022-12-11T23:13:40.415Z,13.20
2022-12-11T23:16:07.167Z,13.80
2022-12-11T23:18:33.921Z,13.20
2022-12-11T23:21:01.074Z,12.30
2022-12-11T23:23:28.045Z,12.50
2022-12-11T23:25:56.318Z,11.50
2022-12-11T23:28:23.173Z,12.60
2022-12-11T23:30:50.225Z,13.00
2022-12-11T23:33:17.059Z,13.40
2022-12-11T23:35:44.670Z,12.40
2022-12-11T23:38:11.429Z,11.60
2022-12-11T23:40:38.778Z,11.50
2022-12-11T23:43:05.513Z,11.90
2022-12-11T23:45:32.279Z,11.10
2022-12-11T23:47:59.053Z,12.90
2022-12-11T23:50:25.861Z,11.80
2022-12-11T23:52:52.602Z,12.50
2022-12-11T23:55:20.118Z,12.30
2022-12-11T23:57:46.906Z,11.90
